Flight Track Log - Related Links

Times and Time Zones

All times are in EDT time to prevent confusion due to time zone crossing. See the N171CA flight status page for this flight to view local times or setup timezone preferences in your user account.

Time Position Orientation Groundspeed Altitude Reporting Facility
EDT Latitude Longitude Course Direction KTS MPH feet Rate Location/Type
Thu 07:31:57 AM 30.3178 -81.5378 270° West 86 99 800  Level Jacksonville Center
Thu 07:32:27 AM 30.3178 -81.5497 270° West 82 94 1,100 527 Climbing Jacksonville Center
Thu 07:33:28 AM 30.3203 -81.5811 275° West 91 105 1,600 541 Climbing Jacksonville Center
Thu 07:34:29 AM 30.3228 -81.6100 276° West 94 108 2,200 595 Climbing Jacksonville Center
Thu 07:35:29 AM 30.3250 -81.6436 274° West 96 110 2,800 378 Climbing Jacksonville Center
Thu 07:36:36 AM 30.3172 -81.6775 255° West 118 136 3,000 94 Climbing Jacksonville Center
Thu 07:37:37 AM 30.2944 -81.7067 228° Southwest 129 148 3,000 -52 Level Jacksonville Center
Thu 07:38:31 AM 30.2781 -81.7406 241° Southwest 128 147 2,900 -52 Descending Jacksonville Center
Thu 07:39:32 AM 30.2617 -81.7767 242° Southwest 129 148 2,900  Level Jacksonville Center
Thu 07:40:32 AM 30.2494 -81.8153 250° West 127 146 2,900  Level Jacksonville Center
Thu 07:41:33 AM 30.2350 -81.8492 244° Southwest 115 132 2,900  Level Jacksonville Center
Thu 07:42:40 AM 30.2167 -81.8831 238° Southwest 116 133 2,900 45 Level Jacksonville Center
Thu 07:43:47 AM 30.2169 -81.9214 270° West 110 127 3,000  Climbing Jacksonville Center
Thu 07:44:41 AM 30.2256 -81.9525 288° West 111 128 2,900 -47 Descending Jacksonville Center
Thu 07:45:54 AM 30.2217 -81.9936 264° West 107 123 2,900 -269 Level Jacksonville Center
Thu 07:46:55 AM 30.2156 -82.0225 256° West 126 145 2,300 -492 Descending Jacksonville Center
Thu 07:47:56 AM 30.2342 -82.0006 46° Northeast 110 127 1,900 -446 Descending Jacksonville Center
Thu 07:48:56 AM 30.2278 -81.9694 103° East 96 110 1,400 -520 Descending Jacksonville Center
Thu 07:50:03 AM 30.2192 -81.9311 105° East 102 117 800 -344 Descending Jacksonville Center
Thu 07:50:58 AM 30.2147 -81.9022 100° East 110 127 700 261 Descending Jacksonville Center
Thu 07:51:58 AM 30.2039 -81.8736 114° Southeast 104 120 1,300 645 Climbing Jacksonville Center
Thu 07:52:59 AM 30.2125 -81.8806 325° Northwest 105 121 2,000 672 Climbing Jacksonville Center
Thu 07:54:12 AM 30.2353 -81.8539 45° Northeast 93 107 2,800 709 Climbing Jacksonville Center
Thu 07:55:06 AM 30.2539 -81.8369 38° Northeast 93 107 3,500 661 Climbing Jacksonville Center
Thu 07:56:01 AM 30.2725 -81.8200 38° Northeast 104 120 4,000 310 Climbing Jacksonville Center
Thu 07:57:02 AM 30.2994 -81.8003 32° Northeast 116 133 4,100 50 Climbing Jacksonville Center
Thu 07:58:02 AM 30.3306 -81.7783 31° Northeast 133 153 4,100 -50 Level Jacksonville Center
Thu 07:59:03 AM 30.3617 -81.7514 37° Northeast 140 161 4,000 -49 Descending Jacksonville Center
Thu 08:00:04 AM 30.3947 -81.7294 30° Northeast 138 159 4,000 50 Level Jacksonville Center
Thu 08:01:04 AM 30.4133 -81.6906 61° Northeast 133 153 4,100 52 Climbing Jacksonville Center
Thu 08:01:59 AM 30.4339 -81.6567 55° Northeast 132 152 4,100 -207 Level Jacksonville Center
Thu 08:03:00 AM 30.4522 -81.6203 60° Northeast 129 148 3,700 -520 Descending Jacksonville Center
Thu 08:04:06 AM 30.4644 -81.5792 71° East 124 143 3,000 -744 Descending Jacksonville Center
Thu 08:05:01 AM 30.4744 -81.5428 72° East 119 137 2,200 -443 Descending Jacksonville Center
Thu 08:06:08 AM 30.4928 -81.5136 54° Northeast 120 138 2,100 -94 Descending Jacksonville Center
Thu 08:07:08 AM 30.5203 -81.5350 326° Northwest 105 121 2,000 -99 Descending Jacksonville Center
Thu 08:08:09 AM 30.5311 -81.5636 294° West 103 119 1,900 -344 Descending Jacksonville Center
Thu 08:09:10 AM 30.5292 -81.5950 266° West 95 109 1,300 -469 Descending Jacksonville Center
Thu 08:10:17 AM 30.5192 -81.6267 250° West 98 113 900 -440 Descending Jacksonville Center
Thu 08:10:59 AM 30.5131 -81.6436 247° West 94 108 500 -117 Descending Jacksonville Center
Thu 08:13:43 AM 30.4947 -81.6992 249° West 88 101 500 187 Level Jacksonville Center
Thu 08:14:44 AM 30.4697 -81.7044 190° South 112 129 1,200 639 Climbing Jacksonville Center
Thu 08:15:45 AM 30.4406 -81.7000 173° South 110 127 1,800 541 Climbing Jacksonville Center
Thu 08:16:46 AM 30.4133 -81.6858 156° South 113 130 2,300 522 Climbing Jacksonville Center
Thu 08:17:40 AM 30.3839 -81.6742 161° South 115 132 2,800 347 Climbing Jacksonville Center
Thu 08:18:47 AM 30.3503 -81.6625 163° South 118 136 3,000 45 Climbing Jacksonville Center
Thu 08:19:54 AM 30.3208 -81.6389 145° Southeast 117 135 2,900  Descending Jacksonville Center
Thu 08:20:55 AM 30.2956 -81.6128 138° Southeast 114 131 3,000 98 Climbing Jacksonville Center
Thu 08:21:56 AM 30.2764 -81.5864 130° Southeast 110 127 3,100  Climbing Jacksonville Center
Thu 08:22:57 AM 30.2511 -81.5581 136° Southeast 121 139 3,000 -49 Descending Jacksonville Center
Thu 08:23:58 AM 30.2278 -81.5269 131° Southeast 123 142 3,000 -49 Level Jacksonville Center
Thu 08:24:59 AM 30.2067 -81.4986 131° Southeast 122 140 2,900  Descending Jacksonville Center
Thu 08:25:59 AM 30.1856 -81.4700 130° Southeast 123 142 3,000 -446 Climbing Jacksonville Center
Thu 08:27:00 AM 30.1933 -81.4289 78° East 124 143 2,000 -569 Descending Jacksonville Center
Thu 08:27:55 AM 30.2033 -81.3975 70° East 106 122 1,900  Descending Jacksonville Center
Thu 08:28:56 AM 30.2222 -81.3925 13° North 108 124 2,000  Climbing Jacksonville Center
Thu 08:30:03 AM 30.2453 -81.4139 321° Northwest 90 104 1,900  Descending Jacksonville Center
Thu 08:30:58 AM 30.2644 -81.4328 320° Northwest 99 114 2,000 -207 Climbing Jacksonville Center
Thu 08:31:59 AM 30.2856 -81.4492 326° Northwest 96 110 1,500 -492 Descending Jacksonville Center
Thu 08:33:00 AM 30.3025 -81.4731 309° West 95 109 1,000 -541 Descending Jacksonville Center
Thu 08:34:01 AM 30.3214 -81.4944 316° Northwest 89 102 400 -590 Descending Jacksonville Center

Login

Don't have an account? Register now (free) for customized features, flight alerts, and more!